createdAt,value
2019-03-27T00:00:13.787Z,9.18
2019-03-27T00:02:44.950Z,11.00
2019-03-27T00:05:16.682Z,9.55
2019-03-27T00:07:47.867Z,10.60
2019-03-27T00:10:19.035Z,9.25
2019-03-27T00:12:50.200Z,9.18
2019-03-27T00:15:21.388Z,9.65
2019-03-27T00:17:52.534Z,9.03
2019-03-27T00:20:23.762Z,9.08
2019-03-27T00:22:54.977Z,9.25
2019-03-27T00:25:26.137Z,8.93
2019-03-27T00:27:57.396Z,8.28
2019-03-27T00:30:28.566Z,8.10
2019-03-27T00:32:59.727Z,8.58
2019-03-27T00:35:30.955Z,7.97
2019-03-27T00:38:02.672Z,8.75
2019-03-27T00:40:33.974Z,8.80
2019-03-27T00:43:05.733Z,8.13
2019-03-27T00:45:36.897Z,7.85
2019-03-27T00:48:08.067Z,8.23
2019-03-27T00:50:39.301Z,7.53
2019-03-27T00:53:10.495Z,8.33
2019-03-27T00:55:41.646Z,7.55
2019-03-27T00:58:12.846Z,8.33
2019-03-27T01:01:15.835Z,7.22
2019-03-27T01:03:47.019Z,7.20
2019-03-27T01:06:18.255Z,8.10
2019-03-27T01:08:49.409Z,6.72
2019-03-27T01:11:20.633Z,7.05
2019-03-27T01:13:51.921Z,6.95
2019-03-27T01:16:23.144Z,6.15
2019-03-27T01:18:54.339Z,5.97
2019-03-27T01:21:25.503Z,6.83
2019-03-27T01:23:56.642Z,6.95
2019-03-27T01:26:27.840Z,6.22
2019-03-27T01:28:59.104Z,5.35
2019-03-27T01:31:30.372Z,5.62
2019-03-27T01:34:01.609Z,5.78
2019-03-27T01:36:32.823Z,7.08
2019-03-27T01:39:06.314Z,5.25
2019-03-27T01:41:37.559Z,5.40
2019-03-27T01:44:08.733Z,4.40
2019-03-27T01:46:39.975Z,4.53
2019-03-27T01:49:11.146Z,4.72
2019-03-27T01:51:42.401Z,5.22
2019-03-27T01:54:13.621Z,5.28
2019-03-27T01:56:44.807Z,3.98
2019-03-27T01:59:16.027Z,4.83
2019-03-27T02:01:47.225Z,4.72
2019-03-27T02:04:18.392Z,3.72
2019-03-27T02:06:49.569Z,3.65
2019-03-27T02:09:20.785Z,3.98
2019-03-27T02:11:51.992Z,4.65
2019-03-27T02:14:23.183Z,5.53
2019-03-27T02:16:54.360Z,3.55
2019-03-27T02:19:25.517Z,5.37
2019-03-27T02:21:56.700Z,6.95
2019-03-27T02:24:27.920Z,7.40
2019-03-27T02:26:59.095Z,10.03
2019-03-27T02:29:30.299Z,7.35
2019-03-27T02:32:01.539Z,7.17
2019-03-27T02:34:32.713Z,7.85
2019-03-27T02:37:03.864Z,7.20
2019-03-27T02:39:35.125Z,8.40
2019-03-27T02:42:07.140Z,8.53
2019-03-27T02:44:38.372Z,9.55
2019-03-27T02:47:09.535Z,8.15
2019-03-27T02:49:40.683Z,8.13
2019-03-27T02:52:11.922Z,8.75
2019-03-27T02:54:43.088Z,8.35
2019-03-27T02:57:14.255Z,9.23
2019-03-27T02:59:45.449Z,8.25
2019-03-27T03:02:16.610Z,9.70
2019-03-27T03:04:47.775Z,10.03
2019-03-27T03:07:18.984Z,10.63
2019-03-27T03:09:50.228Z,9.73
2019-03-27T03:12:21.393Z,8.53
2019-03-27T03:14:52.580Z,9.58
2019-03-27T03:17:24.453Z,10.68
2019-03-27T03:19:55.613Z,9.85
2019-03-27T03:22:26.812Z,9.43
2019-03-27T03:24:57.999Z,10.32
2019-03-27T03:27:29.203Z,9.95
2019-03-27T03:30:00.663Z,9.55
2019-03-27T03:32:31.991Z,9.98
2019-03-27T03:35:03.209Z,9.38
2019-03-27T03:37:34.487Z,11.22
2019-03-27T03:40:06.067Z,9.18
2019-03-27T03:42:37.268Z,9.20
2019-03-27T03:45:08.929Z,9.65
2019-03-27T03:47:40.165Z,9.68
2019-03-27T03:50:37.195Z,10.40
2019-03-27T03:53:11.079Z,10.93
2019-03-27T03:55:43.671Z,11.48
2019-03-27T03:58:17.711Z,12.63
2019-03-27T04:00:49.327Z,10.88
2019-03-27T04:03:20.711Z,14.33
2019-03-27T04:05:51.880Z,9.85
2019-03-27T04:08:23.086Z,11.15
2019-03-27T04:10:54.288Z,9.95
2019-03-27T04:13:25.493Z,10.70
2019-03-27T04:15:56.746Z,10.98
2019-03-27T04:18:27.998Z,11.45
2019-03-27T04:20:59.162Z,10.72
2019-03-27T04:23:30.396Z,11.75
2019-03-27T04:26:09.494Z,10.68
2019-03-27T04:28:34.813Z,10.00
2019-03-27T04:31:06.181Z,9.75
2019-03-27T04:33:39.650Z,9.93
2019-03-27T04:36:12.515Z,10.90
2019-03-27T04:38:44.423Z,10.43
2019-03-27T04:41:15.760Z,9.90
2019-03-27T04:43:47.166Z,9.83
2019-03-27T04:46:18.579Z,10.08
2019-03-27T04:48:49.989Z,10.15
2019-03-27T04:51:21.298Z,11.83
2019-03-27T04:53:52.706Z,10.20
2019-03-27T04:56:24.142Z,12.35
2019-03-27T04:58:55.496Z,10.05
2019-03-27T05:01:26.962Z,10.18
2019-03-27T05:03:58.955Z,8.55
2019-03-27T05:06:30.500Z,9.35
2019-03-27T05:09:01.915Z,9.45
2019-03-27T05:11:36.896Z,8.90
2019-03-27T05:14:08.311Z,8.53
2019-03-27T05:16:39.716Z,7.75
2019-03-27T05:19:11.298Z,9.30
2019-03-27T05:21:42.732Z,8.18
2019-03-27T05:24:16.370Z,10.82
2019-03-27T05:26:47.977Z,12.35
2019-03-27T05:29:19.529Z,12.95
2019-03-27T05:31:51.004Z,12.00
2019-03-27T05:34:22.460Z,10.88
2019-03-27T05:36:53.953Z,10.40
2019-03-27T05:39:25.457Z,12.40
2019-03-27T05:41:56.827Z,10.72
2019-03-27T05:44:28.185Z,12.73
2019-03-27T05:46:59.557Z,11.08
2019-03-27T05:49:31.100Z,11.10
2019-03-27T05:52:02.646Z,12.75
2019-03-27T05:54:34.296Z,12.90
2019-03-27T05:57:05.697Z,10.40
2019-03-27T05:59:36.939Z,11.45
2019-03-27T06:02:08.300Z,10.35
2019-03-27T06:04:39.492Z,11.25
2019-03-27T06:07:10.679Z,10.38
2019-03-27T06:09:41.820Z,10.58
2019-03-27T06:12:13.008Z,10.75
2019-03-27T06:14:44.250Z,10.50
2019-03-27T06:17:15.486Z,9.90
2019-03-27T06:19:46.672Z,12.03
2019-03-27T06:22:17.839Z,12.78
2019-03-27T06:24:49.039Z,14.75
2019-03-27T06:27:20.246Z,15.25
2019-03-27T06:29:51.398Z,15.20
2019-03-27T06:32:22.672Z,17.17
2019-03-27T06:34:53.846Z,19.45
2019-03-27T06:37:25.774Z,19.35
2019-03-27T06:39:56.986Z,18.30
2019-03-27T06:42:28.212Z,19.20
2019-03-27T06:44:59.377Z,17.15
2019-03-27T06:47:32.775Z,17.55
2019-03-27T06:50:04.696Z,17.35
2019-03-27T06:52:35.848Z,16.50
2019-03-27T06:55:07.892Z,14.28
2019-03-27T06:57:39.046Z,12.73
2019-03-27T07:00:12.320Z,13.43
2019-03-27T07:02:43.479Z,11.10
2019-03-27T07:05:14.732Z,10.38
2019-03-27T07:07:45.901Z,10.70
2019-03-27T07:10:17.259Z,8.38
2019-03-27T07:12:48.461Z,9.43
2019-03-27T07:15:19.648Z,8.98
2019-03-27T07:17:50.891Z,7.78
2019-03-27T07:20:22.168Z,8.15
2019-03-27T07:22:53.392Z,6.67
2019-03-27T07:25:24.592Z,8.20
2019-03-27T07:27:55.872Z,6.15
2019-03-27T07:30:27.316Z,7.90
2019-03-27T07:32:58.605Z,10.05
2019-03-27T07:35:29.869Z,7.58
2019-03-27T07:38:01.136Z,7.83
2019-03-27T07:40:32.463Z,6.47
2019-03-27T07:43:03.640Z,5.87
2019-03-27T07:45:34.842Z,5.80
2019-03-27T07:48:05.994Z,4.42
2019-03-27T07:50:37.168Z,5.50
2019-03-27T07:53:08.566Z,5.53
2019-03-27T07:55:40.392Z,6.62
2019-03-27T07:58:11.914Z,6.00
2019-03-27T08:00:43.122Z,7.03
2019-03-27T08:03:14.471Z,6.70
2019-03-27T08:05:46.135Z,3.52
2019-03-27T08:08:17.435Z,4.50
2019-03-27T08:10:49.067Z,3.17
2019-03-27T08:13:20.764Z,4.17
2019-03-27T08:15:52.464Z,4.97
2019-03-27T08:18:24.119Z,5.05
2019-03-27T08:20:55.824Z,4.62
2019-03-27T08:23:27.452Z,4.78
2019-03-27T08:25:59.116Z,5.05
2019-03-27T08:28:30.499Z,2.77
2019-03-27T08:31:02.214Z,2.55
2019-03-27T08:33:38.400Z,2.55
2019-03-27T08:36:10.210Z,1.92
2019-03-27T08:38:44.967Z,3.20
2019-03-27T08:41:16.371Z,2.15
2019-03-27T08:43:47.572Z,1.52
2019-03-27T08:46:19.178Z,1.50
2019-03-27T08:48:51.468Z,1.98
2019-03-27T08:51:22.767Z,1.37
2019-03-27T08:53:54.526Z,2.00
2019-03-27T08:56:25.835Z,2.50
2019-03-27T08:58:57.613Z,2.85
2019-03-27T09:01:28.937Z,2.90
2019-03-27T09:04:00.155Z,3.95
2019-03-27T09:06:33.927Z,3.47
2019-03-27T09:09:06.533Z,4.80
2019-03-27T09:11:37.830Z,3.62
2019-03-27T09:14:09.061Z,3.58
2019-03-27T09:16:40.295Z,2.98
2019-03-27T09:19:11.530Z,2.98
2019-03-27T09:21:42.730Z,3.12
2019-03-27T09:24:13.981Z,2.22
2019-03-27T09:26:45.252Z,1.95
2019-03-27T09:29:16.734Z,3.08
2019-03-27T09:31:47.983Z,1.82
2019-03-27T09:34:19.309Z,2.55
2019-03-27T09:36:50.499Z,1.80
2019-03-27T09:39:21.714Z,2.10
2019-03-27T09:41:52.934Z,2.62
2019-03-27T09:44:24.135Z,1.87
2019-03-27T09:46:55.397Z,2.08
2019-03-27T09:49:26.592Z,2.00
2019-03-27T09:51:57.802Z,1.20
2019-03-27T09:54:29.068Z,1.07
2019-03-27T09:57:00.278Z,0.50
2019-03-27T09:59:31.571Z,0.53
2019-03-27T10:02:02.814Z,0.42
2019-03-27T10:04:33.961Z,0.40
2019-03-27T10:07:05.120Z,0.13
2019-03-27T10:09:36.396Z,0.20
2019-03-27T10:12:07.642Z,0.10
2019-03-27T10:14:38.893Z,0.30
2019-03-27T10:17:10.152Z,0.05
2019-03-27T10:19:41.411Z,0.10
2019-03-27T10:22:12.790Z,0.00
2019-03-27T10:24:44.033Z,0.20
2019-03-27T10:27:15.215Z,0.10
2019-03-27T10:29:46.367Z,0.10
2019-03-27T10:32:17.608Z,0.10
2019-03-27T10:34:48.978Z,0.30
2019-03-27T10:37:20.189Z,0.20
2019-03-27T10:39:51.454Z,0.30
2019-03-27T10:42:22.771Z,0.30
2019-03-27T10:44:54.035Z,0.68
2019-03-27T10:47:25.263Z,0.70
2019-03-27T10:49:56.425Z,0.98
2019-03-27T10:52:27.763Z,0.82
2019-03-27T10:54:59.008Z,0.28
2019-03-27T10:57:30.266Z,0.80
2019-03-27T11:00:01.550Z,0.33
2019-03-27T11:02:32.820Z,0.70
2019-03-27T11:05:04.009Z,0.57
2019-03-27T11:07:35.204Z,0.57
2019-03-27T11:10:07.302Z,0.37
2019-03-27T11:12:38.892Z,0.50
2019-03-27T11:15:10.699Z,0.70
2019-03-27T11:17:41.961Z,1.42
2019-03-27T11:20:14.947Z,0.90
2019-03-27T11:22:46.173Z,1.52
2019-03-27T11:25:17.453Z,0.40
2019-03-27T11:27:48.850Z,0.57
2019-03-27T11:30:25.311Z,0.68
2019-03-27T11:32:56.706Z,0.55
2019-03-27T11:35:28.042Z,0.40
2019-03-27T11:37:59.232Z,0.40
2019-03-27T11:40:30.475Z,0.40
2019-03-27T11:43:01.724Z,6.78
2019-03-27T11:45:32.990Z,2.35
2019-03-27T11:48:04.198Z,0.88
2019-03-27T11:50:44.608Z,0.50
2019-03-27T11:53:08.358Z,1.30
2019-03-27T11:55:39.638Z,1.57
2019-03-27T11:58:10.818Z,0.90
2019-03-27T12:00:53.890Z,0.75
2019-03-27T12:03:14.960Z,1.25
2019-03-27T12:05:46.128Z,0.80
2019-03-27T12:08:17.305Z,0.88
2019-03-27T12:10:48.535Z,1.17
2019-03-27T12:13:19.776Z,0.78
2019-03-27T12:15:51.045Z,0.60
2019-03-27T12:18:22.320Z,0.70
2019-03-27T12:20:59.510Z,1.05
2019-03-27T12:23:26.818Z,1.10
2019-03-27T12:25:58.175Z,1.22
2019-03-27T12:28:30.079Z,0.82
2019-03-27T12:31:02.215Z,1.30
2019-03-27T12:33:33.790Z,1.30
2019-03-27T12:36:05.308Z,1.82
2019-03-27T12:38:37.473Z,1.30
2019-03-27T12:41:10.545Z,0.75
2019-03-27T12:43:43.637Z,1.57
2019-03-27T12:46:15.475Z,1.37
2019-03-27T12:48:46.981Z,1.57
2019-03-27T12:51:18.750Z,1.85
2019-03-27T12:53:50.423Z,2.10
2019-03-27T12:56:21.969Z,1.82
2019-03-27T12:58:54.147Z,2.00
2019-03-27T13:01:25.598Z,2.42
2019-03-27T13:03:57.002Z,1.92
2019-03-27T13:06:28.641Z,1.75
2019-03-27T13:09:00.026Z,1.17
2019-03-27T13:11:31.981Z,1.40
2019-03-27T13:14:03.535Z,0.80
2019-03-27T13:16:34.905Z,1.07
2019-03-27T13:19:06.442Z,0.85
2019-03-27T13:21:37.825Z,1.47
2019-03-27T13:24:09.013Z,1.07
2019-03-27T13:26:40.204Z,1.47
2019-03-27T13:29:11.436Z,0.78
2019-03-27T13:31:42.644Z,1.32
2019-03-27T13:34:13.798Z,0.98
2019-03-27T13:36:49.276Z,1.40
2019-03-27T13:39:20.625Z,1.30
2019-03-27T13:41:51.797Z,2.33
2019-03-27T13:44:31.379Z,1.02
2019-03-27T13:46:55.957Z,1.35
2019-03-27T13:49:27.387Z,2.85
2019-03-27T13:51:58.560Z,2.40
2019-03-27T13:54:29.757Z,1.55
2019-03-27T13:57:00.959Z,2.12
2019-03-27T13:59:32.148Z,2.20
2019-03-27T14:02:03.354Z,2.20
2019-03-27T14:04:34.641Z,2.42
2019-03-27T14:07:05.865Z,2.80
2019-03-27T14:09:37.172Z,2.47
2019-03-27T14:12:08.498Z,2.90
2019-03-27T14:14:50.234Z,1.57
2019-03-27T14:17:13.271Z,1.40
2019-03-27T14:19:44.708Z,2.27
2019-03-27T14:22:16.127Z,2.42
2019-03-27T14:24:47.342Z,1.95
2019-03-27T14:27:18.809Z,1.92
2019-03-27T14:29:50.072Z,1.72
2019-03-27T14:32:21.319Z,3.00
2019-03-27T14:34:54.729Z,1.75
2019-03-27T14:37:25.909Z,2.50
2019-03-27T14:39:57.181Z,2.15
2019-03-27T14:42:28.636Z,2.25
2019-03-27T14:44:59.880Z,2.95
2019-03-27T14:47:31.136Z,2.77
2019-03-27T14:50:02.321Z,1.82
2019-03-27T14:52:33.738Z,2.37
2019-03-27T14:55:05.025Z,3.52
2019-03-27T14:57:38.559Z,2.87
2019-03-27T15:00:11.931Z,4.35
2019-03-27T15:02:43.324Z,4.17
2019-03-27T15:05:15.295Z,2.58
2019-03-27T15:07:46.524Z,3.02
2019-03-27T15:10:18.364Z,2.60
2019-03-27T15:12:49.590Z,3.25
2019-03-27T15:15:20.842Z,2.20
2019-03-27T15:17:52.114Z,2.40
2019-03-27T15:20:23.329Z,2.55
2019-03-27T15:22:54.641Z,3.52
2019-03-27T15:25:26.074Z,4.33
2019-03-27T15:27:57.351Z,4.03
2019-03-27T15:30:28.527Z,2.33
2019-03-27T15:33:00.120Z,2.12
2019-03-27T15:35:31.337Z,2.47
2019-03-27T15:38:02.567Z,2.77
2019-03-27T15:40:45.439Z,2.42
2019-03-27T15:43:16.695Z,2.22
2019-03-27T15:45:47.984Z,2.65
2019-03-27T15:48:19.308Z,2.87
2019-03-27T15:50:58.250Z,2.42
2019-03-27T15:53:23.460Z,3.25
2019-03-27T15:55:54.703Z,2.27
2019-03-27T15:58:25.952Z,2.85
2019-03-27T16:00:57.188Z,3.52
2019-03-27T16:03:28.420Z,2.83
2019-03-27T16:05:59.622Z,3.02
2019-03-27T16:08:30.863Z,2.10
2019-03-27T16:11:02.031Z,2.85
2019-03-27T16:13:33.212Z,2.30
2019-03-27T16:16:04.510Z,3.27
2019-03-27T16:18:35.758Z,3.52
2019-03-27T16:21:06.949Z,4.00
2019-03-27T16:23:38.285Z,3.85
2019-03-27T16:26:09.441Z,3.80
2019-03-27T16:28:40.643Z,4.85
2019-03-27T16:31:11.899Z,5.08
2019-03-27T16:33:43.128Z,4.25
2019-03-27T16:36:14.332Z,4.28
2019-03-27T16:38:45.569Z,3.98
2019-03-27T16:41:16.782Z,4.22
2019-03-27T16:43:48.057Z,3.98
2019-03-27T16:46:19.279Z,3.98
2019-03-27T16:48:50.470Z,3.83
2019-03-27T16:51:21.764Z,2.87
2019-03-27T16:53:53.083Z,2.62
2019-03-27T16:56:24.295Z,3.77
2019-03-27T16:58:55.544Z,3.72
2019-03-27T17:01:26.777Z,2.72
2019-03-27T17:03:58.059Z,3.40
2019-03-27T17:06:29.302Z,3.27
2019-03-27T17:09:02.063Z,3.42
2019-03-27T17:11:33.385Z,3.35
2019-03-27T17:14:04.615Z,3.67
2019-03-27T17:16:35.893Z,4.10
2019-03-27T17:19:07.201Z,2.95
2019-03-27T17:21:38.447Z,2.95
2019-03-27T17:24:09.707Z,3.37
2019-03-27T17:26:40.946Z,2.72
2019-03-27T17:29:12.162Z,2.67
2019-03-27T17:31:43.374Z,3.30
2019-03-27T17:34:14.550Z,3.40
2019-03-27T17:36:45.736Z,1.75
2019-03-27T17:39:16.907Z,2.40
2019-03-27T17:41:48.232Z,2.35
2019-03-27T17:44:19.445Z,2.22
2019-03-27T17:46:50.769Z,2.05
2019-03-27T17:49:21.949Z,2.40
2019-03-27T17:51:53.424Z,2.15
2019-03-27T17:54:25.074Z,1.75
2019-03-27T17:56:56.265Z,1.62
2019-03-27T17:59:27.447Z,2.02
2019-03-27T18:01:58.729Z,3.08
2019-03-27T18:04:29.898Z,2.85
2019-03-27T18:07:01.100Z,3.22
2019-03-27T18:09:33.301Z,4.20
2019-03-27T18:12:04.438Z,4.60
2019-03-27T18:14:35.604Z,6.45
2019-03-27T18:17:06.891Z,5.05
2019-03-27T18:19:38.093Z,5.50
2019-03-27T18:22:09.307Z,9.43
2019-03-27T18:24:40.620Z,9.13
2019-03-27T18:27:11.859Z,8.48
2019-03-27T18:29:43.198Z,10.03
2019-03-27T18:32:14.487Z,9.20
2019-03-27T18:34:45.733Z,9.18
2019-03-27T18:37:16.999Z,9.03
2019-03-27T18:39:48.256Z,8.95
2019-03-27T18:42:19.556Z,8.70
2019-03-27T18:44:50.822Z,9.90
2019-03-27T18:47:22.133Z,8.65
2019-03-27T18:49:53.365Z,9.53
2019-03-27T18:52:24.625Z,9.30
2019-03-27T18:54:55.886Z,9.00
2019-03-27T18:57:27.095Z,9.73
2019-03-27T18:59:58.302Z,8.93
2019-03-27T19:02:29.528Z,8.83
2019-03-27T19:05:00.789Z,9.60
2019-03-27T19:07:32.080Z,9.15
2019-03-27T19:10:03.314Z,10.00
2019-03-27T19:12:34.544Z,9.78
2019-03-27T19:15:06.346Z,9.05
2019-03-27T19:17:37.703Z,9.20
2019-03-27T19:20:10.487Z,9.45
2019-03-27T19:22:41.709Z,9.15
2019-03-27T19:25:13.125Z,8.85
2019-03-27T19:27:44.438Z,8.20
2019-03-27T19:30:17.403Z,8.38
2019-03-27T19:32:48.594Z,9.75
2019-03-27T19:35:20.037Z,9.18
2019-03-27T19:37:51.251Z,10.93
2019-03-27T19:40:22.472Z,8.98
2019-03-27T19:42:53.659Z,9.30
2019-03-27T19:45:25.126Z,10.40
2019-03-27T19:47:56.395Z,10.20
2019-03-27T19:50:27.616Z,10.15
2019-03-27T19:52:58.888Z,11.90
2019-03-27T19:55:30.075Z,11.28
2019-03-27T19:58:01.267Z,11.38
2019-03-27T20:00:32.586Z,12.33
2019-03-27T20:03:03.807Z,12.63
2019-03-27T20:05:35.006Z,11.70
2019-03-27T20:08:07.020Z,10.98
2019-03-27T20:10:38.246Z,12.98
2019-03-27T20:13:09.547Z,12.10
2019-03-27T20:15:40.743Z,12.58
2019-03-27T20:18:11.981Z,13.40
2019-03-27T20:20:43.186Z,12.80
2019-03-27T20:23:15.607Z,12.37
2019-03-27T20:25:46.991Z,12.25
2019-03-27T20:28:18.253Z,11.83
2019-03-27T20:30:49.468Z,12.33
2019-03-27T20:33:20.690Z,12.45
2019-03-27T20:35:51.873Z,13.03
2019-03-27T20:38:23.203Z,14.13
2019-03-27T20:40:54.476Z,14.00
2019-03-27T20:43:25.794Z,13.75
2019-03-27T20:45:56.963Z,14.95
2019-03-27T20:48:28.164Z,15.05
2019-03-27T20:50:59.520Z,13.45
2019-03-27T20:53:30.693Z,14.28
2019-03-27T20:56:01.965Z,14.15
2019-03-27T20:58:33.210Z,15.05
2019-03-27T21:01:04.520Z,14.45
2019-03-27T21:03:35.688Z,13.15
2019-03-27T21:06:06.909Z,14.73
2019-03-27T21:08:38.082Z,15.35
2019-03-27T21:11:09.250Z,16.07
2019-03-27T21:13:41.241Z,14.40
2019-03-27T21:16:12.690Z,14.53
2019-03-27T21:18:44.005Z,15.63
2019-03-27T21:21:15.231Z,15.28
2019-03-27T21:23:46.436Z,14.78
2019-03-27T21:26:17.593Z,15.40
2019-03-27T21:28:48.801Z,16.05
2019-03-27T21:31:20.013Z,15.43
2019-03-27T21:33:51.175Z,15.68
2019-03-27T21:36:22.528Z,16.52
2019-03-27T21:38:53.736Z,15.55
2019-03-27T21:41:24.918Z,15.18
2019-03-27T21:43:56.098Z,16.25
2019-03-27T21:46:27.307Z,16.52
2019-03-27T21:48:58.579Z,16.20
2019-03-27T21:51:29.827Z,17.23
2019-03-27T21:54:01.053Z,16.45
2019-03-27T21:56:32.222Z,15.63
2019-03-27T21:59:03.528Z,15.28
2019-03-27T22:01:34.795Z,15.70
2019-03-27T22:04:06.036Z,15.83
2019-03-27T22:06:37.415Z,15.98
2019-03-27T22:09:09.954Z,19.90
2019-03-27T22:11:41.148Z,17.35
2019-03-27T22:14:12.389Z,16.73
2019-03-27T22:16:43.601Z,17.77
2019-03-27T22:19:14.776Z,16.48
2019-03-27T22:21:45.952Z,17.80
2019-03-27T22:24:17.171Z,16.77
2019-03-27T22:26:49.567Z,17.35
2019-03-27T22:29:20.772Z,17.10
2019-03-27T22:31:51.959Z,17.17
2019-03-27T22:34:23.147Z,16.75
2019-03-27T22:36:54.383Z,18.02
2019-03-27T22:39:25.571Z,18.10
2019-03-27T22:41:56.748Z,19.10
2019-03-27T22:44:27.954Z,17.75
2019-03-27T22:46:59.122Z,18.75
2019-03-27T22:49:30.380Z,18.55
2019-03-27T22:52:01.655Z,18.92
2019-03-27T22:54:32.817Z,20.60
2019-03-27T22:57:04.081Z,20.23
2019-03-27T22:59:35.316Z,20.23
2019-03-27T23:02:06.635Z,20.57
2019-03-27T23:04:37.830Z,18.45
2019-03-27T23:07:09.014Z,19.57
2019-03-27T23:09:40.202Z,19.87
2019-03-27T23:12:11.345Z,20.55
2019-03-27T23:14:42.557Z,19.00
2019-03-27T23:17:13.736Z,19.92
2019-03-27T23:19:44.918Z,21.75
2019-03-27T23:22:16.175Z,21.20
2019-03-27T23:24:47.326Z,20.70
2019-03-27T23:27:18.476Z,22.15
2019-03-27T23:29:49.686Z,21.40
2019-03-27T23:32:20.832Z,21.10
2019-03-27T23:34:52.033Z,20.27
2019-03-27T23:37:23.338Z,20.72
2019-03-27T23:39:54.512Z,22.02
2019-03-27T23:42:25.693Z,20.82
2019-03-27T23:44:57.049Z,22.55
2019-03-27T23:47:28.295Z,23.85
2019-03-27T23:49:59.456Z,23.38
2019-03-27T23:52:30.734Z,25.10
2019-03-27T23:55:01.944Z,24.25
2019-03-27T23:57:33.125Z,25.43
